sensor_id;sensor_type;location;lat;lon;timestamp;P1;durP1;ratioP1;P2;durP2;ratioP2
44452;SDS011;30155;52.164;21.236;2023-03-12T00:04:02;9.40;;;6.30;;
44452;SDS011;30155;52.164;21.236;2023-03-12T00:08:56;9.70;;;5.60;;
44452;SDS011;30155;52.164;21.236;2023-03-12T00:13:53;8.40;;;5.60;;
44452;SDS011;30155;52.164;21.236;2023-03-12T00:19:01;8.70;;;5.10;;
44452;SDS011;30155;52.164;21.236;2023-03-12T00:23:54;9.20;;;6.30;;
44452;SDS011;30155;52.164;21.236;2023-03-12T00:28:48;8.60;;;4.90;;
44452;SDS011;30155;52.164;21.236;2023-03-12T00:33:45;7.00;;;5.40;;
44452;SDS011;30155;52.164;21.236;2023-03-12T00:38:40;8.40;;;5.60;;
44452;SDS011;30155;52.164;21.236;2023-03-12T00:43:33;9.30;;;6.80;;
44452;SDS011;30155;52.164;21.236;2023-03-12T00:48:27;8.60;;;5.90;;
44452;SDS011;30155;52.164;21.236;2023-03-12T00:53:20;9.20;;;6.40;;
44452;SDS011;30155;52.164;21.236;2023-03-12T00:58:13;10.20;;;6.60;;
44452;SDS011;30155;52.164;21.236;2023-03-12T01:03:06;11.30;;;7.70;;
44452;SDS011;30155;52.164;21.236;2023-03-12T01:07:59;14.00;;;8.30;;
44452;SDS011;30155;52.164;21.236;2023-03-12T01:12:52;10.70;;;7.60;;
44452;SDS011;30155;52.164;21.236;2023-03-12T01:17:44;8.50;;;6.20;;
44452;SDS011;30155;52.164;21.236;2023-03-12T01:22:37;11.00;;;9.00;;
44452;SDS011;30155;52.164;21.236;2023-03-12T01:27:30;13.10;;;8.50;;
44452;SDS011;30155;52.164;21.236;2023-03-12T01:32:23;10.30;;;7.80;;
44452;SDS011;30155;52.164;21.236;2023-03-12T01:37:16;10.40;;;6.90;;
44452;SDS011;30155;52.164;21.236;2023-03-12T01:42:09;12.00;;;8.10;;
44452;SDS011;30155;52.164;21.236;2023-03-12T01:47:02;11.70;;;8.00;;
44452;SDS011;30155;52.164;21.236;2023-03-12T01:52:14;10.90;;;8.30;;
44452;SDS011;30155;52.164;21.236;2023-03-12T02:02:13;11.10;;;8.60;;
44452;SDS011;30155;52.164;21.236;2023-03-12T02:07:10;11.60;;;8.00;;
44452;SDS011;30155;52.164;21.236;2023-03-12T02:12:05;14.80;;;8.90;;
44452;SDS011;30155;52.164;21.236;2023-03-12T02:16:59;11.90;;;7.70;;
44452;SDS011;30155;52.164;21.236;2023-03-12T02:21:53;11.20;;;8.60;;
44452;SDS011;30155;52.164;21.236;2023-03-12T02:26:47;14.50;;;9.30;;
44452;SDS011;30155;52.164;21.236;2023-03-12T02:31:44;14.10;;;8.50;;
44452;SDS011;30155;52.164;21.236;2023-03-12T02:36:42;10.40;;;7.30;;
44452;SDS011;30155;52.164;21.236;2023-03-12T02:41:35;10.80;;;6.80;;
44452;SDS011;30155;52.164;21.236;2023-03-12T02:46:34;11.50;;;6.80;;
44452;SDS011;30155;52.164;21.236;2023-03-12T02:51:29;14.50;;;6.50;;
44452;SDS011;30155;52.164;21.236;2023-03-12T02:56:23;10.10;;;6.80;;
44452;SDS011;30155;52.164;21.236;2023-03-12T03:01:18;11.40;;;6.40;;
44452;SDS011;30155;52.164;21.236;2023-03-12T03:06:12;12.30;;;6.80;;
44452;SDS011;30155;52.164;21.236;2023-03-12T03:11:06;13.40;;;7.90;;
44452;SDS011;30155;52.164;21.236;2023-03-12T03:16:00;8.10;;;6.50;;
44452;SDS011;30155;52.164;21.236;2023-03-12T03:21:13;9.10;;;5.70;;
44452;SDS011;30155;52.164;21.236;2023-03-12T03:26:08;7.10;;;4.90;;
44452;SDS011;30155;52.164;21.236;2023-03-12T03:31:02;8.50;;;6.10;;
44452;SDS011;30155;52.164;21.236;2023-03-12T03:35:58;8.10;;;5.10;;
44452;SDS011;30155;52.164;21.236;2023-03-12T03:40:53;6.80;;;5.40;;
44452;SDS011;30155;52.164;21.236;2023-03-12T03:45:47;9.30;;;5.80;;
44452;SDS011;30155;52.164;21.236;2023-03-12T03:50:41;9.20;;;5.90;;
44452;SDS011;30155;52.164;21.236;2023-03-12T03:55:37;7.60;;;5.90;;
44452;SDS011;30155;52.164;21.236;2023-03-12T04:00:33;7.10;;;4.90;;
44452;SDS011;30155;52.164;21.236;2023-03-12T04:05:26;9.50;;;6.50;;
44452;SDS011;30155;52.164;21.236;2023-03-12T04:10:20;8.10;;;6.00;;
44452;SDS011;30155;52.164;21.236;2023-03-12T04:15:15;8.20;;;5.80;;
44452;SDS011;30155;52.164;21.236;2023-03-12T04:20:10;9.90;;;6.80;;
44452;SDS011;30155;52.164;21.236;2023-03-12T04:25:04;11.80;;;6.40;;
44452;SDS011;30155;52.164;21.236;2023-03-12T04:29:58;8.70;;;5.50;;
44452;SDS011;30155;52.164;21.236;2023-03-12T04:34:51;3.90;;;3.50;;
44452;SDS011;30155;52.164;21.236;2023-03-12T04:39:44;9.50;;;6.20;;
44452;SDS011;30155;52.164;21.236;2023-03-12T04:44:38;7.30;;;5.60;;
44452;SDS011;30155;52.164;21.236;2023-03-12T04:49:31;9.80;;;5.90;;
44452;SDS011;30155;52.164;21.236;2023-03-12T04:54:25;6.60;;;5.80;;
44452;SDS011;30155;52.164;21.236;2023-03-12T04:59:18;7.40;;;5.10;;
44452;SDS011;30155;52.164;21.236;2023-03-12T05:04:12;7.00;;;5.20;;
44452;SDS011;30155;52.164;21.236;2023-03-12T05:09:06;7.40;;;5.30;;
44452;SDS011;30155;52.164;21.236;2023-03-12T05:13:59;6.50;;;4.10;;
44452;SDS011;30155;52.164;21.236;2023-03-12T05:18:53;7.60;;;4.90;;
44452;SDS011;30155;52.164;21.236;2023-03-12T05:23:46;7.00;;;5.30;;
44452;SDS011;30155;52.164;21.236;2023-03-12T05:28:40;8.10;;;5.50;;
44452;SDS011;30155;52.164;21.236;2023-03-12T05:33:34;7.10;;;4.50;;
44452;SDS011;30155;52.164;21.236;2023-03-12T05:38:28;7.80;;;4.70;;
44452;SDS011;30155;52.164;21.236;2023-03-12T05:43:21;6.40;;;4.50;;
44452;SDS011;30155;52.164;21.236;2023-03-12T05:48:15;5.40;;;4.90;;
44452;SDS011;30155;52.164;21.236;2023-03-12T05:53:08;6.50;;;5.50;;
44452;SDS011;30155;52.164;21.236;2023-03-12T05:58:03;7.90;;;5.90;;
44452;SDS011;30155;52.164;21.236;2023-03-12T06:02:57;8.90;;;5.50;;
44452;SDS011;30155;52.164;21.236;2023-03-12T06:07:50;8.80;;;5.20;;
44452;SDS011;30155;52.164;21.236;2023-03-12T06:12:44;6.60;;;4.90;;
44452;SDS011;30155;52.164;21.236;2023-03-12T06:17:37;5.00;;;4.50;;
44452;SDS011;30155;52.164;21.236;2023-03-12T06:22:30;6.70;;;4.60;;
44452;SDS011;30155;52.164;21.236;2023-03-12T06:27:23;13.20;;;5.30;;
44452;SDS011;30155;52.164;21.236;2023-03-12T06:32:16;5.60;;;4.00;;
44452;SDS011;30155;52.164;21.236;2023-03-12T06:37:10;6.00;;;4.00;;
44452;SDS011;30155;52.164;21.236;2023-03-12T06:42:03;5.80;;;3.80;;
44452;SDS011;30155;52.164;21.236;2023-03-12T06:46:57;6.30;;;4.70;;
44452;SDS011;30155;52.164;21.236;2023-03-12T06:51:50;5.40;;;4.20;;
44452;SDS011;30155;52.164;21.236;2023-03-12T06:56:43;4.80;;;3.30;;
44452;SDS011;30155;52.164;21.236;2023-03-12T07:01:36;5.00;;;3.90;;
44452;SDS011;30155;52.164;21.236;2023-03-12T07:06:29;3.90;;;3.40;;
44452;SDS011;30155;52.164;21.236;2023-03-12T07:11:22;4.70;;;3.70;;
44452;SDS011;30155;52.164;21.236;2023-03-12T07:16:15;5.60;;;3.60;;
44452;SDS011;30155;52.164;21.236;2023-03-12T07:21:08;4.90;;;3.80;;
44452;SDS011;30155;52.164;21.236;2023-03-12T07:26:02;7.10;;;3.80;;
44452;SDS011;30155;52.164;21.236;2023-03-12T07:31:00;4.90;;;3.70;;
44452;SDS011;30155;52.164;21.236;2023-03-12T07:40:51;4.70;;;3.60;;
44452;SDS011;30155;52.164;21.236;2023-03-12T07:45:45;3.90;;;3.40;;
44452;SDS011;30155;52.164;21.236;2023-03-12T07:50:38;4.60;;;3.80;;
44452;SDS011;30155;52.164;21.236;2023-03-12T07:55:32;6.80;;;4.20;;
44452;SDS011;30155;52.164;21.236;2023-03-12T08:00:26;4.70;;;3.10;;
44452;SDS011;30155;52.164;21.236;2023-03-12T08:05:21;7.00;;;3.10;;
44452;SDS011;30155;52.164;21.236;2023-03-12T08:10:15;7.10;;;2.90;;
44452;SDS011;30155;52.164;21.236;2023-03-12T08:15:08;5.80;;;3.10;;
44452;SDS011;30155;52.164;21.236;2023-03-12T08:20:03;4.50;;;2.40;;
44452;SDS011;30155;52.164;21.236;2023-03-12T08:24:59;5.90;;;2.50;;
44452;SDS011;30155;52.164;21.236;2023-03-12T08:29:52;2.80;;;2.00;;
44452;SDS011;30155;52.164;21.236;2023-03-12T08:34:45;4.50;;;2.20;;
44452;SDS011;30155;52.164;21.236;2023-03-12T08:39:38;3.20;;;2.00;;
44452;SDS011;30155;52.164;21.236;2023-03-12T08:44:32;2.10;;;1.90;;
44452;SDS011;30155;52.164;21.236;2023-03-12T08:49:25;4.30;;;2.40;;
44452;SDS011;30155;52.164;21.236;2023-03-12T08:54:18;7.30;;;3.30;;
44452;SDS011;30155;52.164;21.236;2023-03-12T08:59:12;4.00;;;2.20;;
44452;SDS011;30155;52.164;21.236;2023-03-12T09:04:05;2.80;;;1.90;;
44452;SDS011;30155;52.164;21.236;2023-03-12T09:08:58;2.40;;;1.60;;
44452;SDS011;30155;52.164;21.236;2023-03-12T09:13:55;2.80;;;1.70;;
44452;SDS011;30155;52.164;21.236;2023-03-12T09:19:08;4.10;;;2.00;;
44452;SDS011;30155;52.164;21.236;2023-03-12T09:24:01;1.50;;;1.20;;
44452;SDS011;30155;52.164;21.236;2023-03-12T09:28:54;3.00;;;1.30;;
44452;SDS011;30155;52.164;21.236;2023-03-12T09:33:48;2.10;;;1.90;;
44452;SDS011;30155;52.164;21.236;2023-03-12T09:38:41;3.10;;;1.80;;
44452;SDS011;30155;52.164;21.236;2023-03-12T09:44:35;3.10;;;1.50;;
44452;SDS011;30155;52.164;21.236;2023-03-12T09:49:16;2.90;;;1.60;;
44452;SDS011;30155;52.164;21.236;2023-03-12T09:54:20;5.50;;;1.20;;
44452;SDS011;30155;52.164;21.236;2023-03-12T09:59:19;2.20;;;1.30;;
44452;SDS011;30155;52.164;21.236;2023-03-12T10:09:56;3.90;;;2.30;;
44452;SDS011;30155;52.164;21.236;2023-03-12T10:20:21;3.00;;;1.50;;
44452;SDS011;30155;52.164;21.236;2023-03-12T10:30:33;2.80;;;1.50;;
44452;SDS011;30155;52.164;21.236;2023-03-12T10:35:27;2.50;;;2.20;;
44452;SDS011;30155;52.164;21.236;2023-03-12T10:40:22;5.00;;;1.90;;
44452;SDS011;30155;52.164;21.236;2023-03-12T10:45:32;3.60;;;1.90;;
44452;SDS011;30155;52.164;21.236;2023-03-12T10:50:34;2.20;;;1.50;;
44452;SDS011;30155;52.164;21.236;2023-03-12T10:55:29;3.10;;;1.50;;
44452;SDS011;30155;52.164;21.236;2023-03-12T11:00:25;4.90;;;1.60;;
44452;SDS011;30155;52.164;21.236;2023-03-12T11:10:22;4.80;;;1.50;;
44452;SDS011;30155;52.164;21.236;2023-03-12T11:20:24;4.00;;;2.00;;
44452;SDS011;30155;52.164;21.236;2023-03-12T11:25:22;2.60;;;1.90;;
44452;SDS011;30155;52.164;21.236;2023-03-12T11:30:21;4.90;;;2.20;;
44452;SDS011;30155;52.164;21.236;2023-03-12T11:35:27;3.90;;;1.70;;
44452;SDS011;30155;52.164;21.236;2023-03-12T11:40:40;3.50;;;1.60;;
44452;SDS011;30155;52.164;21.236;2023-03-12T11:56:28;2.20;;;1.50;;
44452;SDS011;30155;52.164;21.236;2023-03-12T12:01:28;5.30;;;1.70;;
44452;SDS011;30155;52.164;21.236;2023-03-12T12:27:14;3.60;;;1.50;;
44452;SDS011;30155;52.164;21.236;2023-03-12T12:32:12;3.00;;;1.50;;
44452;SDS011;30155;52.164;21.236;2023-03-12T12:42:28;2.60;;;1.70;;
44452;SDS011;30155;52.164;21.236;2023-03-12T12:52:56;3.40;;;1.30;;
44452;SDS011;30155;52.164;21.236;2023-03-12T12:58:02;4.10;;;1.70;;
44452;SDS011;30155;52.164;21.236;2023-03-12T13:03:11;3.30;;;1.80;;
44452;SDS011;30155;52.164;21.236;2023-03-12T13:14:11;2.60;;;1.70;;
44452;SDS011;30155;52.164;21.236;2023-03-12T13:39:21;2.30;;;1.40;;
44452;SDS011;30155;52.164;21.236;2023-03-12T13:49:15;3.00;;;1.40;;
44452;SDS011;30155;52.164;21.236;2023-03-12T13:54:12;3.20;;;1.70;;
44452;SDS011;30155;52.164;21.236;2023-03-12T13:59:15;5.90;;;1.80;;
44452;SDS011;30155;52.164;21.236;2023-03-12T14:04:29;2.70;;;1.50;;
44452;SDS011;30155;52.164;21.236;2023-03-12T14:09:32;3.10;;;1.70;;
44452;SDS011;30155;52.164;21.236;2023-03-12T14:14:47;3.10;;;1.60;;
44452;SDS011;30155;52.164;21.236;2023-03-12T14:20:10;2.90;;;1.60;;
44452;SDS011;30155;52.164;21.236;2023-03-12T14:25:12;2.30;;;1.40;;
44452;SDS011;30155;52.164;21.236;2023-03-12T14:40:21;3.80;;;1.60;;
44452;SDS011;30155;52.164;21.236;2023-03-12T14:45:20;4.50;;;2.20;;
44452;SDS011;30155;52.164;21.236;2023-03-12T14:50:18;3.70;;;1.70;;
44452;SDS011;30155;52.164;21.236;2023-03-12T14:55:23;3.20;;;1.80;;
44452;SDS011;30155;52.164;21.236;2023-03-12T15:00:21;4.60;;;1.90;;
44452;SDS011;30155;52.164;21.236;2023-03-12T15:05:16;3.50;;;1.80;;
44452;SDS011;30155;52.164;21.236;2023-03-12T15:10:30;5.30;;;2.50;;
44452;SDS011;30155;52.164;21.236;2023-03-12T15:15:27;3.70;;;1.90;;
44452;SDS011;30155;52.164;21.236;2023-03-12T15:20:26;4.80;;;1.90;;
44452;SDS011;30155;52.164;21.236;2023-03-12T15:30:24;3.20;;;2.50;;
44452;SDS011;30155;52.164;21.236;2023-03-12T15:35:23;7.80;;;3.30;;
44452;SDS011;30155;52.164;21.236;2023-03-12T15:40:27;3.30;;;2.00;;
44452;SDS011;30155;52.164;21.236;2023-03-12T15:45:25;3.50;;;2.50;;
44452;SDS011;30155;52.164;21.236;2023-03-12T15:50:40;4.30;;;2.20;;
44452;SDS011;30155;52.164;21.236;2023-03-12T15:55:35;4.40;;;2.30;;
44452;SDS011;30155;52.164;21.236;2023-03-12T16:00:44;3.30;;;1.90;;
44452;SDS011;30155;52.164;21.236;2023-03-12T16:05:38;5.30;;;1.90;;
44452;SDS011;30155;52.164;21.236;2023-03-12T16:10:31;4.70;;;2.50;;
44452;SDS011;30155;52.164;21.236;2023-03-12T16:20:48;6.20;;;2.50;;
44452;SDS011;30155;52.164;21.236;2023-03-12T16:25:52;3.90;;;2.40;;
44452;SDS011;30155;52.164;21.236;2023-03-12T16:31:08;3.60;;;2.20;;
44452;SDS011;30155;52.164;21.236;2023-03-12T16:36:25;5.60;;;2.10;;
44452;SDS011;30155;52.164;21.236;2023-03-12T16:41:51;7.40;;;2.60;;
44452;SDS011;30155;52.164;21.236;2023-03-12T16:46:48;5.40;;;3.00;;
44452;SDS011;30155;52.164;21.236;2023-03-12T16:52:17;6.30;;;3.40;;
44452;SDS011;30155;52.164;21.236;2023-03-12T16:57:29;4.50;;;2.90;;
44452;SDS011;30155;52.164;21.236;2023-03-12T17:02:28;5.80;;;3.10;;
44452;SDS011;30155;52.164;21.236;2023-03-12T17:07:23;9.60;;;5.40;;
44452;SDS011;30155;52.164;21.236;2023-03-12T17:12:17;13.30;;;2.80;;
44452;SDS011;30155;52.164;21.236;2023-03-12T17:17:16;6.10;;;2.90;;
44452;SDS011;30155;52.164;21.236;2023-03-12T17:22:08;4.70;;;3.00;;
44452;SDS011;30155;52.164;21.236;2023-03-12T17:27:01;6.40;;;3.80;;
44452;SDS011;30155;52.164;21.236;2023-03-12T17:31:55;8.10;;;4.20;;
44452;SDS011;30155;52.164;21.236;2023-03-12T17:36:48;6.80;;;3.30;;
44452;SDS011;30155;52.164;21.236;2023-03-12T17:41:40;7.50;;;3.10;;
44452;SDS011;30155;52.164;21.236;2023-03-12T17:46:33;6.50;;;3.80;;
44452;SDS011;30155;52.164;21.236;2023-03-12T17:51:32;7.80;;;4.20;;
44452;SDS011;30155;52.164;21.236;2023-03-12T17:56:25;4.70;;;3.60;;
44452;SDS011;30155;52.164;21.236;2023-03-12T18:01:18;6.90;;;3.70;;
44452;SDS011;30155;52.164;21.236;2023-03-12T18:06:11;8.30;;;4.20;;
44452;SDS011;30155;52.164;21.236;2023-03-12T18:11:04;9.60;;;4.30;;
44452;SDS011;30155;52.164;21.236;2023-03-12T18:15:57;6.80;;;4.80;;
44452;SDS011;30155;52.164;21.236;2023-03-12T18:20:50;11.50;;;4.70;;
44452;SDS011;30155;52.164;21.236;2023-03-12T18:25:43;7.80;;;4.40;;
44452;SDS011;30155;52.164;21.236;2023-03-12T18:30:36;10.60;;;5.10;;
44452;SDS011;30155;52.164;21.236;2023-03-12T18:35:29;7.80;;;5.70;;
44452;SDS011;30155;52.164;21.236;2023-03-12T18:40:23;8.20;;;5.40;;
44452;SDS011;30155;52.164;21.236;2023-03-12T18:45:17;9.60;;;6.00;;
44452;SDS011;30155;52.164;21.236;2023-03-12T18:50:11;11.50;;;6.20;;
44452;SDS011;30155;52.164;21.236;2023-03-12T18:55:04;10.80;;;6.00;;
44452;SDS011;30155;52.164;21.236;2023-03-12T18:59:57;12.80;;;5.60;;
44452;SDS011;30155;52.164;21.236;2023-03-12T19:04:50;12.20;;;6.60;;
44452;SDS011;30155;52.164;21.236;2023-03-12T19:09:46;14.10;;;6.70;;
44452;SDS011;30155;52.164;21.236;2023-03-12T19:14:39;10.80;;;6.00;;
44452;SDS011;30155;52.164;21.236;2023-03-12T19:19:32;12.00;;;7.50;;
44452;SDS011;30155;52.164;21.236;2023-03-12T19:24:25;15.60;;;8.10;;
44452;SDS011;30155;52.164;21.236;2023-03-12T19:29:18;17.00;;;10.10;;
44452;SDS011;30155;52.164;21.236;2023-03-12T19:34:11;18.90;;;11.90;;
44452;SDS011;30155;52.164;21.236;2023-03-12T19:39:04;22.40;;;14.30;;
44452;SDS011;30155;52.164;21.236;2023-03-12T19:44:11;27.90;;;17.10;;
44452;SDS011;30155;52.164;21.236;2023-03-12T19:49:04;30.90;;;17.90;;
44452;SDS011;30155;52.164;21.236;2023-03-12T19:53:57;29.00;;;17.30;;
44452;SDS011;30155;52.164;21.236;2023-03-12T19:58:49;31.70;;;17.90;;
44452;SDS011;30155;52.164;21.236;2023-03-12T20:03:42;33.50;;;19.60;;
44452;SDS011;30155;52.164;21.236;2023-03-12T20:08:35;29.90;;;18.10;;
44452;SDS011;30155;52.164;21.236;2023-03-12T20:13:28;32.30;;;18.80;;
44452;SDS011;30155;52.164;21.236;2023-03-12T20:18:21;33.40;;;19.30;;
44452;SDS011;30155;52.164;21.236;2023-03-12T20:23:14;27.80;;;16.90;;
44452;SDS011;30155;52.164;21.236;2023-03-12T20:28:08;28.50;;;18.00;;
44452;SDS011;30155;52.164;21.236;2023-03-12T20:33:02;28.00;;;16.20;;
44452;SDS011;30155;52.164;21.236;2023-03-12T20:37:57;29.30;;;17.50;;
44452;SDS011;30155;52.164;21.236;2023-03-12T20:42:50;27.30;;;18.10;;
44452;SDS011;30155;52.164;21.236;2023-03-12T20:47:42;32.70;;;17.80;;
44452;SDS011;30155;52.164;21.236;2023-03-12T20:52:35;29.00;;;17.00;;
44452;SDS011;30155;52.164;21.236;2023-03-12T20:57:29;25.40;;;15.10;;
44452;SDS011;30155;52.164;21.236;2023-03-12T21:02:22;26.60;;;16.10;;
44452;SDS011;30155;52.164;21.236;2023-03-12T21:07:15;29.70;;;15.20;;
44452;SDS011;30155;52.164;21.236;2023-03-12T21:12:08;24.20;;;15.10;;
44452;SDS011;30155;52.164;21.236;2023-03-12T21:17:01;27.90;;;14.30;;
44452;SDS011;30155;52.164;21.236;2023-03-12T21:21:54;28.80;;;14.80;;
44452;SDS011;30155;52.164;21.236;2023-03-12T21:26:47;23.50;;;14.20;;
44452;SDS011;30155;52.164;21.236;2023-03-12T21:31:40;21.50;;;12.10;;
44452;SDS011;30155;52.164;21.236;2023-03-12T21:36:33;19.80;;;12.50;;
44452;SDS011;30155;52.164;21.236;2023-03-12T21:41:25;21.70;;;12.30;;
44452;SDS011;30155;52.164;21.236;2023-03-12T21:46:19;21.10;;;11.50;;
44452;SDS011;30155;52.164;21.236;2023-03-12T21:51:15;24.40;;;12.00;;
44452;SDS011;30155;52.164;21.236;2023-03-12T21:56:10;19.10;;;12.50;;
44452;SDS011;30155;52.164;21.236;2023-03-12T22:01:04;19.60;;;11.10;;
44452;SDS011;30155;52.164;21.236;2023-03-12T22:05:59;21.00;;;12.00;;
44452;SDS011;30155;52.164;21.236;2023-03-12T22:10:52;20.60;;;13.40;;
44452;SDS011;30155;52.164;21.236;2023-03-12T22:15:56;22.90;;;14.10;;
44452;SDS011;30155;52.164;21.236;2023-03-12T22:20:51;26.30;;;13.80;;
44452;SDS011;30155;52.164;21.236;2023-03-12T22:25:45;22.10;;;13.40;;
44452;SDS011;30155;52.164;21.236;2023-03-12T22:30:39;24.70;;;13.80;;
44452;SDS011;30155;52.164;21.236;2023-03-12T22:35:31;21.50;;;13.40;;
44452;SDS011;30155;52.164;21.236;2023-03-12T22:40:24;24.80;;;13.90;;
44452;SDS011;30155;52.164;21.236;2023-03-12T22:45:18;27.00;;;15.10;;
44452;SDS011;30155;52.164;21.236;2023-03-12T22:50:11;23.40;;;12.50;;
44452;SDS011;30155;52.164;21.236;2023-03-12T22:55:04;29.80;;;15.90;;
44452;SDS011;30155;52.164;21.236;2023-03-12T22:59:57;25.20;;;15.60;;
44452;SDS011;30155;52.164;21.236;2023-03-12T23:04:50;27.00;;;14.50;;
44452;SDS011;30155;52.164;21.236;2023-03-12T23:09:44;27.50;;;15.40;;
44452;SDS011;30155;52.164;21.236;2023-03-12T23:14:38;24.90;;;14.40;;
44452;SDS011;30155;52.164;21.236;2023-03-12T23:19:31;23.10;;;12.80;;
44452;SDS011;30155;52.164;21.236;2023-03-12T23:24:25;21.30;;;13.40;;
44452;SDS011;30155;52.164;21.236;2023-03-12T23:29:18;24.60;;;14.80;;
44452;SDS011;30155;52.164;21.236;2023-03-12T23:34:11;25.20;;;13.40;;
44452;SDS011;30155;52.164;21.236;2023-03-12T23:39:03;29.20;;;15.00;;
44452;SDS011;30155;52.164;21.236;2023-03-12T23:43:57;21.60;;;12.10;;
44452;SDS011;30155;52.164;21.236;2023-03-12T23:48:51;21.60;;;12.40;;
44452;SDS011;30155;52.164;21.236;2023-03-12T23:53:48;21.10;;;11.30;;
44452;SDS011;30155;52.164;21.236;2023-03-12T23:58:44;20.80;;;12.10;;
